SKW4661 KBOI-KSFO
Flight info
| Callsign | SKW4661 |
|---|---|
| Flight time | N/A |
| Altitude | 34000 |
| Route | HYVAL REO LEGGS BDEGA4 |
| Aircraft | E75L/M-SDE3GILORVW/S |
Departure
| Time | 2026-05-06 03:12 |
|---|---|
| Airport | Boise Air Terminal/Gowen Field (KBOI) |
Arrival
| Time | N/A |
|---|---|
| Airport | San Francisco International Airport (KSFO) |
| Time | Latitude | Longitude | Altitude | Speed | Heading |
|---|---|---|---|---|---|
| 2026-05-06 03:03 | 43.56674 | -116.21829 | 2880 ft | 0 kts | 309° |
| 2026-05-06 03:05 | 43.56667 | -116.21818 | 2880 ft | 4 kts | 309° |
| 2026-05-06 03:05 | 43.56651 | -116.21788 | 2880 ft | 4 kts | 303° |
| 2026-05-06 03:05 | 43.56639 | -116.21756 | 2880 ft | 4 kts | 272° |
| 2026-05-06 03:06 | 43.56643 | -116.21741 | 2880 ft | 1 kts | 175° |
| 2026-05-06 03:06 | 43.56647 | -116.21742 | 2880 ft | 0 kts | 175° |
| 2026-05-06 03:08 | 43.56644 | -116.21741 | 2880 ft | 1 kts | 175° |
| 2026-05-06 03:08 | 43.56626 | -116.21739 | 2880 ft | 4 kts | 175° |
| 2026-05-06 03:08 | 43.56579 | -116.21734 | 2880 ft | 9 kts | 175° |
| 2026-05-06 03:08 | 43.56499 | -116.21726 | 2880 ft | 14 kts | 175° |
| 2026-05-06 03:09 | 43.56441 | -116.21634 | 2880 ft | 15 kts | 114° |
| 2026-05-06 03:09 | 43.56393 | -116.21490 | 2880 ft | 18 kts | 115° |
| 2026-05-06 03:09 | 43.56337 | -116.21322 | 2880 ft | 20 kts | 116° |
| 2026-05-06 03:09 | 43.56275 | -116.21143 | 2880 ft | 20 kts | 116° |
| 2026-05-06 03:10 | 43.56215 | -116.20972 | 2880 ft | 20 kts | 115° |
| 2026-05-06 03:10 | 43.56130 | -116.20874 | 2880 ft | 17 kts | 197° |
| 2026-05-06 03:10 | 43.56023 | -116.20941 | 2880 ft | 17 kts | 206° |
| 2026-05-06 03:10 | 43.55917 | -116.21016 | 2880 ft | 16 kts | 236° |
| 2026-05-06 03:11 | 43.55952 | -116.21184 | 2880 ft | 40 kts | 295° |
| 2026-05-06 03:11 | 43.56183 | -116.21854 | 2881 ft | 110 kts | 296° |
| 2026-05-06 03:11 | 43.56578 | -116.23016 | 2884 ft | 156 kts | 297° |
| 2026-05-06 03:11 | 43.57030 | -116.24451 | 3314 ft | 168 kts | 298° |
| 2026-05-06 03:12 | 43.57375 | -116.25994 | 4111 ft | 169 kts | 277° |
| 2026-05-06 03:12 | 43.56969 | -116.27583 | 4665 ft | 196 kts | 235° |
| 2026-05-06 03:12 | 43.55944 | -116.28970 | 5122 ft | 214 kts | 229° |
| 2026-05-06 03:12 | 43.54927 | -116.30503 | 5724 ft | 220 kts | 232° |
| 2026-05-06 03:13 | 43.53888 | -116.32185 | 6063 ft | 243 kts | 232° |
| 2026-05-06 03:13 | 43.52733 | -116.34073 | 6276 ft | 273 kts | 232° |
| 2026-05-06 03:13 | 43.51399 | -116.36129 | 6745 ft | 292 kts | 230° |
| 2026-05-06 03:13 | 43.50002 | -116.38190 | 7619 ft | 295 kts | 230° |
| 2026-05-06 03:14 | 43.48613 | -116.40236 | 8463 ft | 298 kts | 231° |
| 2026-05-06 03:14 | 43.47189 | -116.42357 | 9291 ft | 302 kts | 231° |
| 2026-05-06 03:14 | 43.45757 | -116.44512 | 10047 ft | 307 kts | 231° |
| 2026-05-06 03:14 | 43.44317 | -116.46711 | 10845 ft | 310 kts | 231° |
| 2026-05-06 03:15 | 43.42873 | -116.48914 | 11727 ft | 310 kts | 231° |
| 2026-05-06 03:15 | 43.41417 | -116.51120 | 12511 ft | 313 kts | 231° |
| 2026-05-06 03:15 | 43.39913 | -116.53406 | 12833 ft | 334 kts | 231° |
| 2026-05-06 03:15 | 43.38309 | -116.55838 | 13173 ft | 350 kts | 231° |
| 2026-05-06 03:16 | 43.36656 | -116.58340 | 13849 ft | 354 kts | 231° |
| 2026-05-06 03:16 | 43.35000 | -116.60836 | 14687 ft | 353 kts | 231° |
| 2026-05-06 03:16 | 43.33347 | -116.63322 | 15446 ft | 354 kts | 231° |
| 2026-05-06 03:16 | 43.31699 | -116.65805 | 16056 ft | 359 kts | 231° |
| 2026-05-06 03:17 | 43.30537 | -116.67559 | 16428 ft | 363 kts | 231° |
| 2026-05-06 03:17 | 43.28842 | -116.70115 | 16942 ft | 370 kts | 231° |
| 2026-05-06 03:17 | 43.27054 | -116.72808 | 17498 ft | 375 kts | 231° |
| 2026-05-06 03:17 | 43.25290 | -116.75459 | 18068 ft | 378 kts | 231° |
| 2026-05-06 03:18 | 43.23508 | -116.78133 | 18641 ft | 381 kts | 231° |
| 2026-05-06 03:18 | 43.21711 | -116.80827 | 19185 ft | 384 kts | 231° |
| 2026-05-06 03:18 | 43.19902 | -116.83539 | 19718 ft | 387 kts | 231° |
| 2026-05-06 03:18 | 43.18060 | -116.86297 | 20228 ft | 390 kts | 231° |
| 2026-05-06 03:19 | 43.16213 | -116.89060 | 20710 ft | 394 kts | 231° |
| 2026-05-06 03:19 | 43.14355 | -116.91835 | 21169 ft | 397 kts | 231° |
| 2026-05-06 03:19 | 43.12536 | -116.94696 | 21605 ft | 400 kts | 234° |
| 2026-05-06 03:19 | 43.10781 | -116.97669 | 22034 ft | 403 kts | 236° |
| 2026-05-06 03:20 | 43.07298 | -117.03762 | 22858 ft | 410 kts | 236° |
| 2026-05-06 03:20 | 43.05541 | -117.06850 | 23261 ft | 413 kts | 236° |
| 2026-05-06 03:20 | 43.03744 | -117.10003 | 23670 ft | 416 kts | 236° |
| 2026-05-06 03:21 | 43.01959 | -117.13129 | 24068 ft | 419 kts | 236° |
| 2026-05-06 03:21 | 43.00159 | -117.16272 | 24461 ft | 421 kts | 236° |
| 2026-05-06 03:21 | 42.98346 | -117.19431 | 24848 ft | 423 kts | 236° |
| 2026-05-06 03:21 | 42.96544 | -117.22563 | 25198 ft | 427 kts | 236° |
| 2026-05-06 03:22 | 42.94703 | -117.25758 | 25530 ft | 430 kts | 236° |
| 2026-05-06 03:22 | 42.92847 | -117.28973 | 25858 ft | 433 kts | 236° |
| 2026-05-06 03:22 | 42.90975 | -117.32211 | 26185 ft | 436 kts | 236° |
| 2026-05-06 03:22 | 42.89086 | -117.35472 | 26513 ft | 439 kts | 236° |
| 2026-05-06 03:23 | 42.87190 | -117.38741 | 26839 ft | 441 kts | 236° |
| 2026-05-06 03:23 | 42.85280 | -117.42028 | 27165 ft | 443 kts | 236° |
| 2026-05-06 03:23 | 42.83360 | -117.45329 | 27491 ft | 445 kts | 236° |
| 2026-05-06 03:23 | 42.81429 | -117.48645 | 27813 ft | 447 kts | 236° |
| 2026-05-06 03:24 | 42.79494 | -117.51962 | 28119 ft | 449 kts | 236° |
| 2026-05-06 03:24 | 42.77549 | -117.55293 | 28411 ft | 451 kts | 236° |
| 2026-05-06 03:24 | 42.75588 | -117.58646 | 28684 ft | 453 kts | 236° |
| 2026-05-06 03:24 | 42.73621 | -117.62007 | 28942 ft | 456 kts | 236° |
| 2026-05-06 03:25 | 42.71641 | -117.65386 | 29195 ft | 458 kts | 236° |
| 2026-05-06 03:25 | 42.69648 | -117.68783 | 29447 ft | 460 kts | 236° |
| 2026-05-06 03:25 | 42.67650 | -117.72186 | 29700 ft | 462 kts | 236° |
| 2026-05-06 03:25 | 42.65635 | -117.75611 | 29951 ft | 464 kts | 236° |
| 2026-05-06 03:26 | 42.63621 | -117.79032 | 30201 ft | 465 kts | 236° |
| 2026-05-06 03:26 | 42.61595 | -117.82469 | 30451 ft | 466 kts | 236° |
| 2026-05-06 03:26 | 42.59532 | -117.85949 | 30690 ft | 468 kts | 234° |
| 2026-05-06 03:26 | 42.57153 | -117.89004 | 30907 ft | 476 kts | 220° |
| 2026-05-06 03:27 | 42.54559 | -117.91719 | 31115 ft | 478 kts | 220° |
| 2026-05-06 03:27 | 42.51890 | -117.94503 | 31321 ft | 479 kts | 220° |
| 2026-05-06 03:27 | 42.49273 | -117.97228 | 31521 ft | 481 kts | 220° |
| 2026-05-06 03:27 | 42.46618 | -117.99990 | 31722 ft | 482 kts | 220° |
| 2026-05-06 03:28 | 42.43951 | -118.02766 | 31925 ft | 483 kts | 220° |
| 2026-05-06 03:28 | 42.41287 | -118.05543 | 32125 ft | 484 kts | 220° |
| 2026-05-06 03:28 | 42.38616 | -118.08332 | 32338 ft | 485 kts | 220° |
| 2026-05-06 03:28 | 42.35946 | -118.11120 | 32600 ft | 484 kts | 220° |
| 2026-05-06 03:29 | 42.33288 | -118.13897 | 32898 ft | 482 kts | 220° |
| 2026-05-06 03:29 | 42.30642 | -118.16661 | 33217 ft | 480 kts | 220° |
| 2026-05-06 03:29 | 42.28007 | -118.19412 | 33533 ft | 477 kts | 220° |
| 2026-05-06 03:29 | 42.25383 | -118.22150 | 33790 ft | 477 kts | 220° |
| 2026-05-06 03:30 | 42.22755 | -118.24891 | 33904 ft | 479 kts | 220° |
| 2026-05-06 03:30 | 42.20107 | -118.27651 | 33951 ft | 483 kts | 220° |
| 2026-05-06 03:30 | 42.14729 | -118.33246 | 33952 ft | 493 kts | 220° |
| 2026-05-06 03:31 | 42.09237 | -118.38946 | 33949 ft | 502 kts | 220° |
| 2026-05-06 03:31 | 42.03657 | -118.44722 | 33950 ft | 510 kts | 220° |
| 2026-05-06 03:32 | 41.98014 | -118.50549 | 33950 ft | 513 kts | 220° |
| 2026-05-06 03:32 | 41.92361 | -118.56367 | 33949 ft | 510 kts | 219° |
| 2026-05-06 03:33 | 41.86719 | -118.62163 | 33958 ft | 511 kts | 219° |
| 2026-05-06 03:33 | 41.81064 | -118.67960 | 33966 ft | 512 kts | 219° |
| 2026-05-06 03:34 | 41.75405 | -118.73748 | 33973 ft | 511 kts | 219° |
| 2026-05-06 03:34 | 41.69747 | -118.79522 | 33975 ft | 512 kts | 219° |
| 2026-05-06 03:35 | 41.64084 | -118.85289 | 33977 ft | 512 kts | 219° |
| 2026-05-06 03:35 | 41.58382 | -118.91081 | 33979 ft | 511 kts | 219° |
| 2026-05-06 03:36 | 41.52747 | -118.96794 | 33982 ft | 512 kts | 219° |
| 2026-05-06 03:36 | 41.47069 | -119.02536 | 33981 ft | 512 kts | 219° |
| 2026-05-06 03:37 | 41.41392 | -119.08265 | 33974 ft | 512 kts | 219° |
| 2026-05-06 03:37 | 41.35712 | -119.13984 | 33975 ft | 512 kts | 219° |
| 2026-05-06 03:38 | 41.29985 | -119.19738 | 33994 ft | 512 kts | 219° |
| 2026-05-06 03:38 | 41.24295 | -119.25441 | 33983 ft | 512 kts | 219° |
| 2026-05-06 03:39 | 41.18600 | -119.31136 | 33982 ft | 512 kts | 219° |
| 2026-05-06 03:39 | 41.12904 | -119.36820 | 33983 ft | 512 kts | 218° |
| 2026-05-06 03:40 | 41.07205 | -119.42495 | 33984 ft | 514 kts | 218° |
| 2026-05-06 03:40 | 41.01483 | -119.48180 | 33985 ft | 514 kts | 218° |
| 2026-05-06 03:41 | 40.95759 | -119.53853 | 33985 ft | 513 kts | 218° |
| 2026-05-06 03:41 | 40.90043 | -119.59506 | 33985 ft | 514 kts | 218° |
| 2026-05-06 03:42 | 40.84311 | -119.65163 | 33984 ft | 514 kts | 218° |
| 2026-05-06 03:42 | 40.78824 | -119.70566 | 33984 ft | 514 kts | 218° |
| 2026-05-06 03:43 | 40.73320 | -119.75974 | 33985 ft | 516 kts | 218° |
| 2026-05-06 03:43 | 40.67556 | -119.81626 | 33991 ft | 515 kts | 218° |
| 2026-05-06 03:44 | 40.61801 | -119.87257 | 33994 ft | 516 kts | 218° |
| 2026-05-06 03:44 | 40.55854 | -119.92544 | 33995 ft | 514 kts | 210° |
| 2026-05-06 03:45 | 40.49534 | -119.97057 | 33900 ft | 516 kts | 208° |
| 2026-05-06 03:45 | 40.43152 | -120.01425 | 34006 ft | 516 kts | 207° |
| 2026-05-06 03:46 | 40.36797 | -120.05747 | 33941 ft | 518 kts | 207° |
| 2026-05-06 03:46 | 40.30416 | -120.10078 | 33914 ft | 518 kts | 207° |
| 2026-05-06 03:47 | 40.24021 | -120.14416 | 33951 ft | 516 kts | 207° |
| 2026-05-06 03:47 | 40.18087 | -120.19690 | 34006 ft | 516 kts | 220° |
| 2026-05-06 03:48 | 40.13427 | -120.24845 | 34013 ft | 516 kts | 223° |
| 2026-05-06 03:48 | 40.08073 | -120.31018 | 34014 ft | 514 kts | 223° |
| 2026-05-06 03:49 | 40.02713 | -120.37101 | 34016 ft | 514 kts | 222° |
| 2026-05-06 03:49 | 39.97205 | -120.43175 | 34020 ft | 515 kts | 221° |
| 2026-05-06 03:50 | 39.91721 | -120.49089 | 34025 ft | 516 kts | 220° |
| 2026-05-06 03:50 | 39.86170 | -120.54988 | 34033 ft | 514 kts | 220° |
| 2026-05-06 03:51 | 39.80612 | -120.60843 | 34059 ft | 514 kts | 220° |
| 2026-05-06 03:51 | 39.75047 | -120.66673 | 34079 ft | 514 kts | 220° |
| 2026-05-06 03:52 | 39.69475 | -120.72487 | 34096 ft | 513 kts | 220° |
| 2026-05-06 03:52 | 39.63905 | -120.78283 | 34106 ft | 513 kts | 220° |
| 2026-05-06 03:53 | 39.58343 | -120.84057 | 34112 ft | 512 kts | 219° |
| 2026-05-06 03:53 | 39.52782 | -120.89816 | 34118 ft | 512 kts | 219° |
| 2026-05-06 03:54 | 39.47221 | -120.95562 | 34115 ft | 510 kts | 219° |
| 2026-05-06 03:54 | 39.41632 | -121.01326 | 34115 ft | 511 kts | 219° |
| 2026-05-06 03:55 | 39.36066 | -121.07054 | 34116 ft | 510 kts | 219° |
| 2026-05-06 03:55 | 39.31005 | -121.13389 | 34117 ft | 507 kts | 232° |
| 2026-05-06 03:56 | 39.26479 | -121.20382 | 34120 ft | 508 kts | 232° |
| 2026-05-06 03:56 | 39.21964 | -121.27370 | 34109 ft | 506 kts | 232° |
| 2026-05-06 03:57 | 39.17453 | -121.34328 | 34093 ft | 506 kts | 232° |
| 2026-05-06 03:57 | 39.12917 | -121.41299 | 34082 ft | 507 kts | 232° |
| 2026-05-06 03:58 | 39.08348 | -121.48294 | 34081 ft | 506 kts | 232° |
| 2026-05-06 03:58 | 39.03808 | -121.55220 | 34081 ft | 507 kts | 232° |
| 2026-05-06 03:59 | 38.99262 | -121.62131 | 34081 ft | 507 kts | 231° |
| 2026-05-06 03:59 | 38.94684 | -121.69068 | 34081 ft | 507 kts | 231° |
| 2026-05-06 04:00 | 38.90114 | -121.75976 | 34081 ft | 507 kts | 231° |
| 2026-05-06 04:00 | 38.85534 | -121.82882 | 34082 ft | 509 kts | 231° |
| 2026-05-06 04:01 | 38.80942 | -121.89790 | 34082 ft | 508 kts | 231° |
| 2026-05-06 04:01 | 38.76352 | -121.96681 | 34052 ft | 507 kts | 231° |
| 2026-05-06 04:02 | 38.74060 | -122.00115 | 33379 ft | 506 kts | 231° |
| 2026-05-06 04:02 | 38.71788 | -122.03515 | 32723 ft | 500 kts | 231° |
| 2026-05-06 04:02 | 38.69543 | -122.06868 | 32104 ft | 492 kts | 231° |
| 2026-05-06 04:02 | 38.67324 | -122.10181 | 31504 ft | 486 kts | 231° |
| 2026-05-06 04:03 | 38.65101 | -122.13497 | 30917 ft | 485 kts | 231° |
| 2026-05-06 04:03 | 38.62909 | -122.16764 | 30342 ft | 483 kts | 231° |
| 2026-05-06 04:03 | 38.60728 | -122.20011 | 29767 ft | 479 kts | 231° |
| 2026-05-06 04:03 | 38.58571 | -122.23219 | 29191 ft | 473 kts | 231° |
| 2026-05-06 04:04 | 38.56434 | -122.26394 | 28619 ft | 469 kts | 231° |
| 2026-05-06 04:04 | 38.54318 | -122.29537 | 28065 ft | 464 kts | 231° |
| 2026-05-06 04:04 | 38.52200 | -122.32676 | 27524 ft | 460 kts | 231° |
| 2026-05-06 04:04 | 38.50108 | -122.35778 | 26981 ft | 457 kts | 231° |
| 2026-05-06 04:05 | 38.48007 | -122.38887 | 26432 ft | 455 kts | 231° |
| 2026-05-06 04:05 | 38.45950 | -122.41930 | 25881 ft | 452 kts | 231° |
| 2026-05-06 04:05 | 38.43905 | -122.44962 | 25337 ft | 448 kts | 231° |
| 2026-05-06 04:05 | 38.41888 | -122.47957 | 24844 ft | 443 kts | 231° |
| 2026-05-06 04:06 | 38.39895 | -122.50919 | 24365 ft | 438 kts | 231° |
| 2026-05-06 04:06 | 38.37933 | -122.53832 | 23900 ft | 436 kts | 231° |
| 2026-05-06 04:06 | 38.35949 | -122.56778 | 23443 ft | 433 kts | 231° |
| 2026-05-06 04:06 | 38.33989 | -122.59685 | 22992 ft | 430 kts | 231° |
| 2026-05-06 04:07 | 38.32048 | -122.62560 | 22525 ft | 426 kts | 231° |
| 2026-05-06 04:07 | 38.30112 | -122.65425 | 21850 ft | 426 kts | 231° |
| 2026-05-06 04:07 | 38.28189 | -122.68270 | 21216 ft | 421 kts | 231° |
| 2026-05-06 04:07 | 38.26296 | -122.71064 | 20711 ft | 412 kts | 231° |
| 2026-05-06 04:08 | 38.24357 | -122.73747 | 20231 ft | 403 kts | 222° |
| 2026-05-06 04:08 | 38.22018 | -122.75528 | 19774 ft | 396 kts | 200° |
| 2026-05-06 04:08 | 38.19275 | -122.76164 | 19461 ft | 388 kts | 178° |
| 2026-05-06 04:08 | 38.16619 | -122.75793 | 19216 ft | 392 kts | 167° |
| 2026-05-06 04:09 | 38.13899 | -122.75050 | 18913 ft | 397 kts | 163° |
| 2026-05-06 04:09 | 38.11180 | -122.74183 | 18531 ft | 395 kts | 162° |
| 2026-05-06 04:09 | 38.08541 | -122.73314 | 18099 ft | 389 kts | 162° |
| 2026-05-06 04:09 | 38.05939 | -122.72461 | 17622 ft | 383 kts | 162° |
| 2026-05-06 04:10 | 38.03374 | -122.71631 | 17106 ft | 379 kts | 163° |
| 2026-05-06 04:10 | 38.00834 | -122.70824 | 16627 ft | 374 kts | 163° |
| 2026-05-06 04:10 | 37.98317 | -122.70037 | 16174 ft | 371 kts | 163° |
| 2026-05-06 04:10 | 37.95812 | -122.69263 | 15732 ft | 371 kts | 163° |
| 2026-05-06 04:11 | 37.93296 | -122.68494 | 15288 ft | 372 kts | 164° |
| 2026-05-06 04:11 | 37.90791 | -122.67704 | 14843 ft | 369 kts | 160° |
| 2026-05-06 04:11 | 37.88553 | -122.66246 | 14371 ft | 359 kts | 140° |
| 2026-05-06 04:11 | 37.86626 | -122.64232 | 13719 ft | 359 kts | 136° |
| 2026-05-06 04:12 | 37.84733 | -122.62187 | 13045 ft | 357 kts | 136° |
| 2026-05-06 04:12 | 37.82862 | -122.60155 | 12375 ft | 354 kts | 136° |
| 2026-05-06 04:12 | 37.81002 | -122.58136 | 11829 ft | 348 kts | 136° |
| 2026-05-06 04:12 | 37.79204 | -122.56194 | 11572 ft | 334 kts | 136° |
| 2026-05-06 04:13 | 37.77468 | -122.54326 | 11316 ft | 321 kts | 136° |
| 2026-05-06 04:13 | 37.76292 | -122.53065 | 11179 ft | 312 kts | 136° |
| 2026-05-06 04:13 | 37.74674 | -122.51334 | 11087 ft | 298 kts | 136° |
| 2026-05-06 04:13 | 37.73128 | -122.49680 | 11041 ft | 309 kts | 136° |
| 2026-05-06 04:14 | 37.71472 | -122.47896 | 10999 ft | 305 kts | 136° |
| 2026-05-06 04:14 | 37.69869 | -122.46173 | 10989 ft | 302 kts | 136° |
| 2026-05-06 04:14 | 37.68256 | -122.44442 | 10992 ft | 307 kts | 136° |
| 2026-05-06 04:14 | 37.66598 | -122.42662 | 10989 ft | 307 kts | 136° |
| 2026-05-06 04:15 | 37.64986 | -122.40937 | 10986 ft | 304 kts | 137° |
| 2026-05-06 04:15 | 37.63323 | -122.39167 | 10986 ft | 305 kts | 136° |
| 2026-05-06 04:15 | 37.61725 | -122.37487 | 10975 ft | 307 kts | 139° |
| 2026-05-06 04:15 | 37.59915 | -122.36068 | 10749 ft | 313 kts | 149° |
| 2026-05-06 04:16 | 37.57977 | -122.34826 | 10499 ft | 311 kts | 152° |
| 2026-05-06 04:16 | 37.56040 | -122.33671 | 10240 ft | 305 kts | 153° |
| 2026-05-06 04:16 | 37.54118 | -122.32546 | 9811 ft | 305 kts | 153° |
| 2026-05-06 04:16 | 37.52196 | -122.31419 | 9356 ft | 303 kts | 153° |
| 2026-05-06 04:17 | 37.50270 | -122.30279 | 8899 ft | 302 kts | 153° |
| 2026-05-06 04:17 | 37.48402 | -122.29161 | 8454 ft | 300 kts | 153° |
| 2026-05-06 04:17 | 37.46498 | -122.28015 | 7999 ft | 299 kts | 153° |
| 2026-05-06 04:17 | 37.44651 | -122.26895 | 7554 ft | 297 kts | 153° |
| 2026-05-06 04:18 | 37.42794 | -122.25754 | 7102 ft | 290 kts | 151° |
| 2026-05-06 04:18 | 37.41300 | -122.24140 | 6654 ft | 282 kts | 124° |
| 2026-05-06 04:18 | 37.40534 | -122.21922 | 6258 ft | 273 kts | 104° |
| 2026-05-06 04:18 | 37.40158 | -122.19635 | 5867 ft | 268 kts | 98° |
| 2026-05-06 04:19 | 37.39920 | -122.17311 | 5463 ft | 264 kts | 95° |
| 2026-05-06 04:19 | 37.39809 | -122.15027 | 5050 ft | 260 kts | 83° |
| 2026-05-06 04:19 | 37.40411 | -122.12927 | 4682 ft | 254 kts | 59° |
| 2026-05-06 04:19 | 37.41434 | -122.11127 | 4330 ft | 253 kts | 49° |
| 2026-05-06 04:20 | 37.42619 | -122.09449 | 4191 ft | 260 kts | 45° |
| 2026-05-06 04:20 | 37.43869 | -122.07839 | 4103 ft | 255 kts | 41° |
| 2026-05-06 04:20 | 37.45159 | -122.06694 | 4097 ft | 258 kts | 30° |
| 2026-05-06 04:20 | 37.46796 | -122.05608 | 4088 ft | 256 kts | 20° |
| 2026-05-06 04:21 | 37.48500 | -122.05153 | 4075 ft | 255 kts | 358° |
| 2026-05-06 04:21 | 37.50171 | -122.05827 | 4079 ft | 251 kts | 325° |
| 2026-05-06 04:21 | 37.51289 | -122.07479 | 4098 ft | 249 kts | 298° |
| 2026-05-06 04:21 | 37.51975 | -122.09488 | 4104 ft | 250 kts | 289° |
| 2026-05-06 04:22 | 37.52684 | -122.11474 | 4067 ft | 251 kts | 305° |
| 2026-05-06 04:22 | 37.53416 | -122.12596 | 3767 ft | 256 kts | 310° |